Time;durP1;ratioP1;P1;durP2;ratioP2;P2;SDS_P1;SDS_P2;PMS_P1;PMS_P2;Temp;Humidity;BMP_temperature;BMP_pressure;BME280_temperature;BME280_humidity;BME280_pressure;Samples;Min_cycle;Max_cycle;Signal;HPM_P1;HPM_P2
2023/12/31 00:00:01;;;;;;;14.55;12.32;;;;;;;6.19;66.16;99120.53;5101843;28;20066;-70
2023/12/31 00:02:28;;;;;;;14.38;11.07;;;;;;;6.31;66.19;99149.84;5089591;28;20079;-69
2023/12/31 00:04:54;;;;;;;18.52;11.80;;;;;;;6.28;66.34;99152.59;5088795;28;20303;-69
2023/12/31 00:07:21;;;;;;;14.07;11.15;;;;;;;6.22;66.83;99144.09;5088816;28;20197;-69
2023/12/31 00:09:48;;;;;;;17.42;13.20;;;;;;;6.24;66.73;99139.63;5088655;28;20335;-69
2023/12/31 00:12:15;;;;;;;15.80;12.70;;;;;;;6.24;66.67;99131.72;5088677;28;20051;-70
2023/12/31 00:14:41;;;;;;;16.88;13.00;;;;;;;5.97;67.03;99088.97;5088382;28;20119;-69
2023/12/31 00:17:09;;;;;;;16.48;13.88;;;;;;;6.04;66.56;99087.81;5088295;28;20052;-70
2023/12/31 00:19:36;;;;;;;15.25;11.15;;;;;;;6.18;67.11;99118.81;5088198;28;20044;-70
2023/12/31 00:22:03;;;;;;;13.82;10.98;;;;;;;6.23;67.01;99115.09;5087348;28;20044;-69
2023/12/31 00:24:29;;;;;;;11.98;9.77;;;;;;;6.20;67.06;99114.34;5088182;28;20101;-70
2023/12/31 00:26:56;;;;;;;14.10;10.93;;;;;;;6.21;66.97;99105.53;5088153;28;20105;-70
2023/12/31 00:29:23;;;;;;;12.85;10.45;;;;;;;6.00;66.77;99071.31;5087455;28;20045;-69
2023/12/31 00:31:49;;;;;;;15.35;10.77;;;;;;;6.21;67.04;99103.75;5087935;28;20040;-69
2023/12/31 00:34:17;;;;;;;17.55;11.23;;;;;;;6.16;67.25;99094.34;5087989;28;20044;-70
2023/12/31 00:36:44;;;;;;;15.02;10.18;;;;;;;6.19;67.16;99095.06;5087640;28;20098;-70
2023/12/31 00:39:11;;;;;;;11.65;8.52;;;;;;;6.15;67.35;99093.50;5088285;28;20102;-70
2023/12/31 00:41:37;;;;;;;12.73;8.85;;;;;;;6.14;67.35;99091.78;5088090;28;20048;-69
2023/12/31 00:44:04;;;;;;;9.10;7.38;;;;;;;6.13;67.39;99089.22;5087694;28;20052;-69
2023/12/31 00:46:31;;;;;;;10.68;7.38;;;;;;;6.08;67.80;99087.63;5087770;28;20066;-70
2023/12/31 00:48:57;;;;;;;9.07;6.75;;;;;;;6.09;67.60;99089.34;5087934;28;20048;-69
2023/12/31 00:51:26;;;;;;;12.35;8.20;;;;;;;6.05;67.66;99082.50;5087336;28;20040;-69
2023/12/31 00:53:52;;;;;;;11.30;7.82;;;;;;;6.05;67.88;99082.50;5087319;28;20328;-69
2023/12/31 00:56:19;;;;;;;9.90;7.15;;;;;;;6.06;67.73;99080.72;5086466;28;20036;-69
2023/12/31 00:58:46;;;;;;;9.27;7.53;;;;;;;6.08;67.83;99079.75;5087486;28;20102;-69
2023/12/31 01:01:12;;;;;;;10.30;7.55;;;;;;;6.06;67.76;99075.47;5087151;28;20098;-69
2023/12/31 01:03:39;;;;;;;10.45;7.40;;;;;;;5.87;68.05;99049.06;5087400;28;20094;-69
2023/12/31 01:06:06;;;;;;;9.73;7.55;;;;;;;6.04;68.04;99079.94;5087342;28;20064;-69
2023/12/31 01:08:35;;;;;;;9.88;7.68;;;;;;;5.43;68.33;98978.09;5087062;28;20173;-69
2023/12/31 01:11:02;;;;;;;10.18;8.25;;;;;;;5.98;68.32;99083.66;5087507;28;20040;-70
2023/12/31 01:13:29;;;;;;;10.50;8.57;;;;;;;5.98;68.31;99083.66;5086056;28;20053;-70
2023/12/31 01:15:55;;;;;;;11.65;8.90;;;;;;;5.99;68.07;99081.88;5087232;28;20094;-70
2023/12/31 01:18:22;;;;;;;10.10;8.30;;;;;;;5.96;68.13;99069.72;5087004;28;20086;-70
2023/12/31 01:20:49;;;;;;;12.32;9.10;;;;;;;5.67;68.73;99041.13;5087508;28;20036;-71
2023/12/31 01:23:15;;;;;;;13.43;10.27;;;;;;;5.88;68.67;99074.44;5087013;28;20055;-71
2023/12/31 01:25:44;;;;;;;13.52;9.75;;;;;;;5.86;68.62;99072.78;5086995;28;20044;-71
2023/12/31 01:28:11;;;;;;;14.30;11.00;;;;;;;5.82;68.58;99072.06;5086659;28;20211;-70
2023/12/31 01:30:37;;;;;;;13.88;10.48;;;;;;;5.87;68.19;99070.09;5086832;28;20075;-70
2023/12/31 01:33:05;;;;;;;15.60;10.45;;;;;;;5.86;68.12;99062.25;5085836;28;20044;-70
2023/12/31 01:35:31;;;;;;;14.13;10.70;;;;;;;5.85;67.86;99064.03;5086770;28;20052;-70
2023/12/31 01:37:58;;;;;;;13.00;10.18;;;;;;;5.83;67.80;99063.25;5086707;28;20098;-70
2023/12/31 01:40:25;;;;;;;15.18;11.88;;;;;;;5.74;68.04;99059.22;5086667;28;20051;-70
2023/12/31 01:42:53;;;;;;;14.40;11.15;;;;;;;5.78;67.71;99052.91;5086640;28;20052;-71
2023/12/31 01:45:19;;;;;;;17.00;10.50;;;;;;;5.71;68.01;99045.34;5086372;28;20040;-70
2023/12/31 01:47:46;;;;;;;20.17;11.52;;;;;;;5.72;68.11;99049.69;5086546;28;20044;-71
2023/12/31 01:50:14;;;;;;;14.15;11.00;;;;;;;5.74;67.96;99047.84;5086168;28;20110;-71
2023/12/31 01:52:42;;;;;;;13.65;10.05;;;;;;;5.73;67.77;99046.97;5086423;28;20040;-70
2023/12/31 01:55:10;;;;;;;15.43;11.68;;;;;;;5.71;67.94;99045.34;5086388;28;20044;-70
2023/12/31 01:57:37;;;;;;;16.00;11.60;;;;;;;5.60;68.65;99032.63;5086287;28;20056;-70
2023/12/31 02:00:07;;;;;;;13.85;11.32;;;;;;;5.63;68.63;99031.63;5086305;28;20040;-70
2023/12/31 02:02:34;;;;;;;12.60;10.65;;;;;;;5.64;68.79;99023.69;5086533;28;20326;-70
2023/12/31 02:05:01;;;;;;;14.63;10.68;;;;;;;5.66;68.87;99023.63;5086247;28;20052;-70
2023/12/31 02:07:27;;;;;;;13.65;10.38;;;;;;;5.63;68.82;99019.34;5086146;28;20173;-70
2023/12/31 02:09:54;;;;;;;14.57;10.88;;;;;;;5.59;69.13;99001.13;5086322;28;20040;-71
2023/12/31 02:12:22;;;;;;;14.52;11.30;;;;;;;5.64;69.00;99004.44;5086105;28;20097;-70
2023/12/31 02:14:49;;;;;;;12.07;10.80;;;;;;;5.60;69.08;99002.84;5086061;28;20044;-71
2023/12/31 02:17:17;;;;;;;12.52;10.90;;;;;;;5.57;69.03;99002.97;5086047;28;20036;-71
2023/12/31 02:19:44;;;;;;;14.23;10.02;;;;;;;5.55;69.15;99005.66;5086049;28;20060;-71
2023/12/31 02:22:11;;;;;;;14.52;10.63;;;;;;;5.33;69.14;98968.88;5085990;28;20029;-71
2023/12/31 02:24:45;;;;;;;12.90;10.18;;;;;;;5.53;69.04;99009.25;5085732;28;20281;-70
2023/12/31 02:27:13;;;;;;;;;;;;;;;5.49;69.42;99010.31;5086399;28;20101;-70
2023/12/31 02:29:40;;;;;;;16.02;10.45;;;;;;;5.41;69.57;99003.59;5085934;28;19916;-69
2023/12/31 02:32:07;;;;;;;12.75;10.88;;;;;;;5.22;69.53;98973.69;5085916;28;20044;-70
2023/12/31 02:34:33;;;;;;;13.32;11.20;;;;;;;5.37;69.62;99001.13;5085631;28;20056;-69
2023/12/31 02:37:00;;;;;;;12.55;10.73;;;;;;;5.37;69.32;98988.84;5085795;28;20063;-69
2023/12/31 02:39:29;;;;;;;12.50;10.68;;;;;;;5.38;69.46;98995.81;5085235;28;20065;-69
2023/12/31 02:41:55;;;;;;;15.38;10.73;;;;;;;5.36;69.23;98989.78;5085810;28;20077;-71
2023/12/31 02:44:24;;;;;;;10.90;8.98;;;;;;;5.37;69.37;98991.47;5086028;28;20102;-69
2023/12/31 02:46:50;;;;;;;13.18;10.13;;;;;;;5.38;69.07;98989.72;5086036;28;20044;-70
2023/12/31 02:49:17;;;;;;;11.63;9.80;;;;;;;5.40;69.04;98985.25;5085415;28;20071;-70
2023/12/31 02:51:44;;;;;;;11.45;9.45;;;;;;;5.35;69.13;98981.94;5085614;28;20048;-70
2023/12/31 02:54:10;;;;;;;12.93;9.93;;;;;;;5.34;69.01;98978.47;5085970;28;20056;-70
2023/12/31 02:56:40;;;;;;;12.43;9.90;;;;;;;5.29;69.00;98977.78;5085627;28;20061;-70
2023/12/31 02:59:07;;;;;;;12.68;9.80;;;;;;;5.28;69.17;98980.47;5085637;28;20107;-70
2023/12/31 03:01:35;;;;;;;13.00;10.07;;;;;;;5.25;69.13;98975.34;5085584;28;20040;-71
2023/12/31 03:04:02;;;;;;;12.98;10.32;;;;;;;5.22;69.20;98968.44;5085305;28;20040;-70
2023/12/31 03:06:30;;;;;;;11.98;10.48;;;;;;;4.51;69.32;98839.94;5085557;28;20048;-70
2023/12/31 03:08:59;;;;;;;14.80;10.40;;;;;;;5.19;69.28;98955.44;5085840;28;20036;-69
2023/12/31 03:11:25;;;;;;;12.73;9.88;;;;;;;5.15;69.47;98948.59;5085713;28;20063;-69
2023/12/31 03:13:52;;;;;;;13.02;10.48;;;;;;;4.99;69.41;98919.44;5085793;28;20044;-70
2023/12/31 03:16:19;;;;;;;13.32;10.70;;;;;;;5.06;69.87;98949.81;5085143;28;20351;-70
2023/12/31 03:18:47;;;;;;;13.70;10.95;;;;;;;5.13;69.51;98946.03;5085399;28;20083;-70
2023/12/31 03:21:15;;;;;;;12.13;10.00;;;;;;;5.12;69.64;98940.81;5085397;28;20292;-69
2023/12/31 03:23:42;;;;;;;14.57;11.20;;;;;;;5.14;69.48;98944.25;5085430;28;20040;-70
2023/12/31 03:26:09;;;;;;;12.38;10.73;;;;;;;5.08;69.59;98939.22;5085074;28;20102;-70
2023/12/31 03:28:36;;;;;;;12.52;10.70;;;;;;;5.08;69.59;98941.88;5085617;28;20044;-70
2023/12/31 03:31:04;;;;;;;13.07;10.75;;;;;;;5.12;69.27;98932.94;5085236;28;20040;-69
2023/12/31 03:33:30;;;;;;;12.52;10.80;;;;;;;5.05;69.54;98929.69;5085126;28;20053;-70
2023/12/31 03:35:58;;;;;;;14.90;11.90;;;;;;;5.07;69.29;98921.75;5085546;28;20119;-70
2023/12/31 03:38:25;;;;;;;13.10;10.93;;;;;;;5.03;69.62;98922.81;5089051;28;20063;-70
2023/12/31 03:40:52;;;;;;;14.15;11.13;;;;;;;4.81;69.76;98883.38;5087908;28;20281;-70
2023/12/31 03:43:18;;;;;;;13.25;11.18;;;;;;;5.00;69.55;98913.28;5088934;28;20044;-70
2023/12/31 03:45:46;;;;;;;13.98;10.82;;;;;;;4.92;70.13;98914.50;5088635;28;20044;-69
2023/12/31 03:48:13;;;;;;;13.10;10.20;;;;;;;5.02;69.62;98914.06;5088825;28;20059;-70
2023/12/31 03:50:39;;;;;;;13.52;10.68;;;;;;;4.95;69.71;98909.13;5088408;28;20213;-70
2023/12/31 03:53:07;;;;;;;14.85;10.57;;;;;;;4.98;69.51;98906.38;5088722;28;20090;-70
2023/12/31 03:55:34;;;;;;;14.25;10.50;;;;;;;4.74;69.51;98880.13;5088725;28;20052;-70
2023/12/31 03:58:01;;;;;;;14.02;10.30;;;;;;;4.95;69.31;98914.38;5088340;28;20044;-70
2023/12/31 04:00:27;;;;;;;13.93;11.57;;;;;;;4.93;69.30;98913.56;5088301;28;20041;-70
2023/12/31 04:02:54;;;;;;;14.75;10.02;;;;;;;4.79;69.47;98906.19;5088799;28;20098;-69
2023/12/31 04:05:21;;;;;;;13.15;10.60;;;;;;;4.62;69.71;98909.47;5087967;28;20370;-70
2023/12/31 04:07:47;;;;;;;13.00;10.63;;;;;;;4.47;70.03;98908.28;5088210;28;20103;-70
2023/12/31 04:10:16;;;;;;;12.40;10.02;;;;;;;4.62;69.72;98903.38;5088405;28;20316;-70
2023/12/31 04:12:42;;;;;;;13.98;10.75;;;;;;;4.70;69.28;98901.31;5088083;28;20040;-70
2023/12/31 04:15:09;;;;;;;11.35;10.10;;;;;;;4.52;69.49;98897.63;5088361;28;20102;-70
2023/12/31 04:17:36;;;;;;;13.85;11.02;;;;;;;4.65;69.31;98898.00;5088327;28;20045;-70
2023/12/31 04:20:03;;;;;;;14.50;11.50;;;;;;;4.62;69.01;98896.34;5088553;28;20098;-70
2023/12/31 04:22:30;;;;;;;14.20;10.57;;;;;;;4.55;69.06;98897.50;5088223;28;20036;-70
2023/12/31 04:24:57;;;;;;;12.98;11.68;;;;;;;4.49;69.35;98888.09;5088097;28;20060;-70
2023/12/31 04:27:25;;;;;;;13.88;11.57;;;;;;;4.50;69.18;98888.94;5088146;28;20044;-70
2023/12/31 04:29:51;;;;;;;13.85;10.77;;;;;;;4.26;70.02;98892.50;5088094;28;20048;-70
2023/12/31 04:32:18;;;;;;;16.15;12.50;;;;;;;4.33;69.99;98896.59;5088175;28;20064;-70
2023/12/31 04:34:45;;;;;;;13.20;10.93;;;;;;;4.32;70.12;98890.50;5088415;28;20044;-70
2023/12/31 04:37:11;;;;;;;13.45;10.93;;;;;;;4.33;70.40;98891.34;5088088;28;20044;-70
2023/12/31 04:39:38;;;;;;;14.40;11.98;;;;;;;4.17;71.20;98886.63;5088224;28;20052;-70
2023/12/31 04:42:05;;;;;;;13.77;12.30;;;;;;;3.88;72.02;98852.75;5087566;28;20309;-70
2023/12/31 04:44:33;;;;;;;15.00;13.15;;;;;;;3.99;72.93;98896.94;5088037;28;20036;-70
2023/12/31 04:46:59;;;;;;;20.08;13.80;;;;;;;3.80;73.31;98860.88;5087914;28;20114;-70
2023/12/31 04:49:26;;;;;;;17.30;14.27;;;;;;;3.71;75.40;98895.28;5087236;28;20071;-70
2023/12/31 04:51:53;;;;;;;17.42;14.38;;;;;;;3.04;75.56;98824.22;5087866;28;20232;-70
2023/12/31 04:54:19;;;;;;;20.85;15.27;;;;;;;3.73;75.56;98887.38;5087329;28;20086;-70
2023/12/31 04:56:46;;;;;;;19.27;14.18;;;;;;;3.68;76.37;98882.28;5087587;28;20087;-70
2023/12/31 04:59:13;;;;;;;23.45;17.17;;;;;;;3.63;77.07;98883.34;5087797;28;20067;-70
2023/12/31 05:01:41;;;;;;;24.25;16.30;;;;;;;3.61;77.73;98882.56;5087475;28;20040;-70
2023/12/31 05:04:08;;;;;;;20.52;16.48;;;;;;;2.95;79.27;98795.75;5087431;28;20048;-70
2023/12/31 05:06:34;;;;;;;23.10;17.70;;;;;;;3.60;79.00;98870.38;5087388;28;20060;-70
2023/12/31 05:09:03;;;;;;;23.10;17.67;;;;;;;3.67;78.56;98858.75;5087324;28;20052;-70
2023/12/31 05:11:29;;;;;;;24.45;18.10;;;;;;;3.71;78.34;98850.72;5087013;28;20108;-70
2023/12/31 05:13:56;;;;;;;22.98;18.35;;;;;;;3.87;77.10;98843.19;5087549;28;20093;-70
2023/12/31 05:16:24;;;;;;;24.70;17.85;;;;;;;3.91;77.49;98841.28;5087444;28;20105;-70
2023/12/31 05:18:53;;;;;;;22.88;17.25;;;;;;;3.91;77.76;98842.16;5086059;28;20040;-70
2023/12/31 05:21:20;;;;;;;27.88;19.40;;;;;;;3.27;76.29;98728.31;5087091;28;20040;-70
2023/12/31 05:23:47;;;;;;;28.95;20.90;;;;;;;3.93;78.91;98836.84;5087318;28;20102;-70
2023/12/31 05:26:13;;;;;;;27.33;18.85;;;;;;;4.03;77.16;98818.09;5085879;28;20041;-70
2023/12/31 05:28:40;;;;;;;26.60;21.17;;;;;;;3.99;78.46;98818.28;5086919;28;20040;-70
2023/12/31 05:31:07;;;;;;;29.75;23.08;;;;;;;3.98;78.58;98821.81;5086561;28;20094;-70
2023/12/31 05:33:34;;;;;;;27.08;20.38;;;;;;;3.52;79.93;98764.06;5086835;28;20078;-69
2023/12/31 05:36:02;;;;;;;27.80;20.27;;;;;;;3.87;79.42;98818.72;5086449;28;20236;-70
2023/12/31 05:38:29;;;;;;;32.45;22.90;;;;;;;3.97;78.94;98812.22;5087014;28;20358;-70
2023/12/31 05:40:56;;;;;;;32.72;23.65;;;;;;;3.45;78.79;98725.91;5086975;28;20040;-70
2023/12/31 05:43:22;;;;;;;36.80;22.67;;;;;;;3.81;80.25;98811.94;5086418;28;20314;-70
2023/12/31 05:45:49;;;;;;;37.60;25.15;;;;;;;3.66;81.60;98809.88;5086865;28;20049;-70
2023/12/31 05:48:16;;;;;;;28.77;21.65;;;;;;;3.82;80.13;98819.75;5086552;28;20063;-70
2023/12/31 05:50:43;;;;;;;29.85;23.35;;;;;;;3.48;80.45;98757.22;5086514;28;20059;-70
2023/12/31 05:53:11;;;;;;;31.13;23.30;;;;;;;3.89;80.21;98816.91;5086649;28;20201;-70
2023/12/31 05:55:37;;;;;;;31.10;23.42;;;;;;;3.80;81.11;98820.72;5086406;28;20040;-70
2023/12/31 05:58:04;;;;;;;28.90;22.13;;;;;;;3.77;80.88;98813.81;5086421;28;20051;-70
2023/12/31 06:00:31;;;;;;;32.78;24.30;;;;;;;3.85;80.59;98816.16;5085820;28;20079;-70
2023/12/31 06:02:58;;;;;;;31.35;23.20;;;;;;;3.65;82.30;98810.78;5086244;28;20051;-70
2023/12/31 06:05:24;;;;;;;31.67;21.92;;;;;;;3.54;83.11;98792.81;5086252;28;20048;-70
2023/12/31 06:07:51;;;;;;;31.63;22.38;;;;;;;3.59;82.73;98788.28;5086201;28;20063;-70
2023/12/31 06:10:19;;;;;;;30.77;23.40;;;;;;;3.54;83.47;98779.72;5086183;28;20041;-70
2023/12/31 06:12:45;;;;;;;37.17;24.25;;;;;;;3.28;83.75;98759.69;5086377;28;20235;-70
2023/12/31 06:15:12;;;;;;;31.77;23.48;;;;;;;3.61;82.61;98786.47;5086475;28;20056;-70
2023/12/31 06:17:39;;;;;;;31.48;23.55;;;;;;;3.45;83.39;98780.06;5085819;28;20304;-70
2023/12/31 06:20:07;;;;;;;30.17;22.40;;;;;;;3.53;83.13;98783.25;5086014;28;20044;-70
2023/12/31 06:22:34;;;;;;;32.38;22.58;;;;;;;3.08;81.36;98683.59;5085599;28;20048;-70
2023/12/31 06:25:00;;;;;;;29.52;23.55;;;;;;;3.05;82.24;98710.75;5085965;28;20091;-70
2023/12/31 06:27:29;;;;;;;32.75;23.15;;;;;;;3.53;82.46;98789.34;5085660;28;20094;-70
2023/12/31 06:29:55;;;;;;;30.23;23.98;;;;;;;3.46;82.77;98794.88;5086168;28;20052;-70
2023/12/31 06:32:22;;;;;;;35.05;22.35;;;;;;;3.44;82.72;98797.53;5085847;28;20044;-70
2023/12/31 06:34:48;;;;;;;29.90;22.33;;;;;;;3.26;83.98;98786.84;5085850;28;20044;-70
2023/12/31 06:37:15;;;;;;;32.60;23.77;;;;;;;3.36;83.62;98781.22;5085199;28;20044;-70
2023/12/31 06:39:43;;;;;;;29.67;23.45;;;;;;;2.86;82.80;98701.81;5085775;28;20075;-70
2023/12/31 06:42:10;;;;;;;28.67;22.80;;;;;;;3.38;82.85;98781.19;5085486;28;20107;-70
2023/12/31 06:44:38;;;;;;;29.30;23.00;;;;;;;3.36;82.99;98788.22;5085423;28;20360;-70
2023/12/31 06:47:05;;;;;;;30.73;22.80;;;;;;;3.31;83.17;98793.63;5085812;28;20041;-70
2023/12/31 06:49:32;;;;;;;30.08;23.27;;;;;;;3.12;83.91;98787.31;5085498;28;20060;-70
2023/12/31 06:52:00;;;;;;;31.85;24.25;;;;;;;3.25;83.06;98786.00;5085896;28;20044;-70
2023/12/31 06:54:27;;;;;;;28.65;22.20;;;;;;;3.16;83.17;98784.53;5085966;28;20099;-70
2023/12/31 06:56:53;;;;;;;31.65;22.80;;;;;;;3.21;82.86;98784.38;5085642;28;20052;-69
2023/12/31 06:59:20;;;;;;;30.75;23.08;;;;;;;3.04;83.37;98755.31;5085405;28;20044;-70
2023/12/31 07:01:48;;;;;;;29.30;22.88;;;;;;;3.13;83.49;98771.56;5085877;28;20040;-70
2023/12/31 07:04:15;;;;;;;28.13;21.98;;;;;;;3.02;84.29;98770.22;5085624;28;20056;-70
2023/12/31 07:06:42;;;;;;;28.35;22.92;;;;;;;3.04;84.41;98765.78;5085887;28;20060;-70
2023/12/31 07:09:09;;;;;;;26.88;21.25;;;;;;;3.06;84.48;98763.97;5085276;28;20193;-70
2023/12/31 07:11:35;;;;;;;30.95;22.33;;;;;;;3.23;82.88;98764.25;5086774;28;20101;-70
2023/12/31 07:14:03;;;;;;;29.67;21.23;;;;;;;3.02;82.75;98736.19;5089794;28;20095;-70
2023/12/31 07:16:30;;;;;;;28.23;21.60;;;;;;;3.23;82.71;98747.66;5089237;28;20044;-70
2023/12/31 07:18:57;;;;;;;31.40;23.38;;;;;;;3.27;82.62;98757.97;5089695;28;20044;-70
2023/12/31 07:21:25;;;;;;;29.98;22.33;;;;;;;3.23;82.72;98750.28;5089637;28;20048;-70
2023/12/31 07:23:52;;;;;;;33.22;24.38;;;;;;;2.95;83.17;98721.59;5089277;28;20094;-70
2023/12/31 07:26:25;;;;;;;35.20;25.15;;;;;;;2.79;82.81;98684.63;5089575;28;20098;-70
2023/12/31 07:28:52;;;;;;;32.40;23.35;;;;;;;3.30;82.29;98751.78;5089496;28;20072;-70
2023/12/31 07:31:20;;;;;;;37.38;23.63;;;;;;;3.22;82.59;98757.28;5089176;28;20044;-70
2023/12/31 07:33:47;;;;;;;31.27;22.27;;;;;;;3.22;82.51;98757.28;5089032;28;20425;-70
2023/12/31 07:36:15;;;;;;;31.40;23.70;;;;;;;3.31;81.79;98756.09;5089086;28;20052;-70
2023/12/31 07:38:42;;;;;;;29.00;21.85;;;;;;;3.24;82.01;98763.31;5088735;28;20055;-70
2023/12/31 07:41:11;;;;;;;33.42;23.73;;;;;;;3.22;82.19;98754.66;5088729;28;20040;-71
2023/12/31 07:43:38;;;;;;;33.38;22.90;;;;;;;3.19;82.25;98749.53;5089166;28;20048;-70
2023/12/31 07:46:05;;;;;;;28.50;22.15;;;;;;;3.01;83.08;98739.72;5089213;28;20063;-70
2023/12/31 07:48:32;;;;;;;29.92;21.17;;;;;;;3.04;82.31;98735.22;5088834;28;20300;-70
2023/12/31 07:50:59;;;;;;;27.75;21.30;;;;;;;2.80;83.40;98734.28;5088228;28;20058;-70
2023/12/31 07:53:27;;;;;;;28.80;21.15;;;;;;;2.94;82.77;98725.97;5088989;28;20040;-69
2023/12/31 07:55:54;;;;;;;28.65;21.50;;;;;;;2.96;82.53;98725.91;5088379;28;20358;-69
2023/12/31 07:58:24;;;;;;;32.30;22.33;;;;;;;2.71;83.71;98724.13;5088626;28;20044;-70
2023/12/31 08:00:51;;;;;;;29.98;21.83;;;;;;;2.74;83.41;98728.41;5088506;28;20037;-70
2023/12/31 08:03:18;;;;;;;25.27;19.98;;;;;;;2.83;82.69;98718.50;5088855;28;20145;-70
2023/12/31 08:05:44;;;;;;;25.83;21.02;;;;;;;2.85;82.83;98727.13;5088191;28;20071;-70
2023/12/31 08:08:12;;;;;;;28.30;21.77;;;;;;;2.75;82.85;98717.88;5088430;28;20090;-70
2023/12/31 08:10:40;;;;;;;28.65;19.85;;;;;;;2.72;83.19;98719.75;5088401;28;20047;-70
2023/12/31 08:13:08;;;;;;;28.88;21.65;;;;;;;2.56;82.72;98685.41;5088287;28;20185;-70
2023/12/31 08:15:34;;;;;;;29.00;20.15;;;;;;;2.75;82.76;98724.88;5088037;28;20305;-70
2023/12/31 08:18:02;;;;;;;25.90;19.92;;;;;;;2.80;82.49;98736.06;5088092;28;20044;-70
2023/12/31 08:20:29;;;;;;;26.63;19.50;;;;;;;2.78;82.46;98735.25;5088123;28;20258;-70
2023/12/31 08:22:55;;;;;;;27.67;22.02;;;;;;;2.76;82.03;98731.84;5087285;28;20116;-70
2023/12/31 08:25:22;;;;;;;28.23;20.42;;;;;;;2.78;81.91;98730.03;5087787;28;20048;-70
2023/12/31 08:27:50;;;;;;;23.40;18.63;;;;;;;2.80;81.82;98730.81;5088131;28;20052;-70
2023/12/31 08:30:17;;;;;;;24.45;18.98;;;;;;;2.76;82.14;98730.06;5088131;28;20086;-69
2023/12/31 08:32:43;;;;;;;27.17;20.02;;;;;;;2.74;82.09;98725.78;5087788;28;20048;-70
2023/12/31 08:35:10;;;;;;;24.83;19.10;;;;;;;2.76;81.99;98719.59;5088081;28;20052;-70
2023/12/31 08:37:37;;;;;;;23.60;18.52;;;;;;;2.84;81.54;98727.19;5088234;28;20079;-69
2023/12/31 08:40:04;;;;;;;29.05;20.52;;;;;;;2.79;81.91;98721.25;5087598;28;20044;-70
2023/12/31 08:42:31;;;;;;;23.98;18.75;;;;;;;2.83;81.79;98726.34;5088125;28;20120;-70
2023/12/31 08:44:59;;;;;;;24.17;19.52;;;;;;;2.83;81.60;98721.09;5087839;28;20044;-70
2023/12/31 08:47:26;;;;;;;23.75;18.73;;;;;;;2.73;80.91;98698.78;5087455;28;20346;-70
2023/12/31 08:49:52;;;;;;;27.30;20.60;;;;;;;2.74;80.58;98700.47;5087296;28;20060;-70
2023/12/31 08:52:20;;;;;;;27.23;20.45;;;;;;;2.99;80.82;98728.44;5087154;28;20259;-70
2023/12/31 08:54:47;;;;;;;27.77;20.33;;;;;;;2.99;80.79;98731.06;5087406;28;20054;-70
2023/12/31 08:57:14;;;;;;;27.38;20.67;;;;;;;2.99;81.18;98731.91;5087605;28;20048;-70
2023/12/31 08:59:41;;;;;;;29.27;19.90;;;;;;;2.77;81.27;98691.66;5087203;28;20216;-70
2023/12/31 09:02:09;;;;;;;25.63;19.65;;;;;;;2.96;81.29;98720.69;5087496;28;20044;-70
2023/12/31 09:04:35;;;;;;;24.17;19.17;;;;;;;3.01;80.99;98721.38;5087450;28;20217;-70
2023/12/31 09:07:02;;;;;;;25.73;19.67;;;;;;;2.82;80.50;98682.75;5087355;28;20044;-70
2023/12/31 09:09:30;;;;;;;25.73;19.10;;;;;;;2.39;80.23;98617.13;5087001;28;20041;-70
2023/12/31 09:11:56;;;;;;;26.25;19.42;;;;;;;3.05;80.24;98722.97;5087424;28;20078;-70
2023/12/31 09:14:24;;;;;;;26.42;19.88;;;;;;;3.10;79.96;98728.91;5087151;28;20045;-70
2023/12/31 09:16:51;;;;;;;28.50;19.83;;;;;;;3.11;79.78;98720.16;5087082;28;20366;-70
2023/12/31 09:19:19;;;;;;;25.65;18.23;;;;;;;3.10;79.49;98706.22;5086904;28;20239;-70
2023/12/31 09:21:46;;;;;;;25.65;19.50;;;;;;;3.12;79.71;98701.78;5087024;28;20040;-70
2023/12/31 09:24:13;;;;;;;26.42;19.50;;;;;;;3.11;79.69;98704.44;5086989;28;20087;-70
2023/12/31 09:26:39;;;;;;;26.80;19.77;;;;;;;3.00;79.51;98659.47;5086964;28;20052;-69
2023/12/31 09:29:06;;;;;;;30.00;20.30;;;;;;;3.26;79.25;98689.94;5085742;28;20094;-70
2023/12/31 09:31:34;;;;;;;24.30;17.67;;;;;;;3.26;79.04;98679.47;5086439;28;20101;-70
2023/12/31 09:34:00;;;;;;;24.65;19.23;;;;;;;3.25;79.01;98681.22;5085545;28;20302;-70
2023/12/31 09:36:28;;;;;;;27.15;20.48;;;;;;;3.22;79.25;98678.72;5086584;28;20044;-70
2023/12/31 09:38:55;;;;;;;27.60;20.02;;;;;;;3.29;79.01;98674.13;5086414;28;20297;-70
2023/12/31 09:41:24;;;;;;;30.75;22.00;;;;;;;3.31;78.98;98670.53;5086444;28;20048;-70
2023/12/31 09:43:54;;;;;;;28.73;20.30;;;;;;;3.34;78.52;98675.66;5086314;28;20047;-70
2023/12/31 09:46:22;;;;;;;28.58;22.40;;;;;;;3.21;78.48;98640.34;5086537;28;20119;-69
2023/12/31 09:48:50;;;;;;;28.15;19.90;;;;;;;3.39;78.58;98680.72;5086172;28;20052;-70
2023/12/31 09:51:18;;;;;;;24.60;18.00;;;;;;;3.41;78.31;98673.66;5086045;28;20271;-70
2023/12/31 09:53:47;;;;;;;22.85;17.27;;;;;;;3.41;78.08;98685.00;5086321;28;20040;-70
2023/12/31 09:56:17;;;;;;;22.90;17.65;;;;;;;3.07;78.01;98624.31;5086113;28;20044;-70
2023/12/31 09:58:44;;;;;;;23.50;18.00;;;;;;;3.48;77.63;98676.00;5086254;28;20040;-70
2023/12/31 10:01:11;;;;;;;23.35;18.00;;;;;;;3.42;77.47;98676.22;5085841;28;20047;-70
2023/12/31 10:03:40;;;;;;;22.23;17.10;;;;;;;3.39;77.28;98671.09;5085923;28;20040;-70
2023/12/31 10:06:08;;;;;;;19.73;16.33;;;;;;;3.41;77.28;98669.28;5086388;28;20343;-70
2023/12/31 10:08:36;;;;;;;20.42;16.10;;;;;;;3.43;76.97;98666.59;5086123;28;20044;-70
2023/12/31 10:11:05;;;;;;;21.58;16.00;;;;;;;3.25;77.51;98664.66;5086334;28;20052;-70
2023/12/31 10:13:32;;;;;;;22.27;16.90;;;;;;;3.35;77.35;98663.41;5086051;28;20040;-70
2023/12/31 10:15:59;;;;;;;24.42;17.40;;;;;;;3.35;77.25;98658.19;5085827;28;20240;-70
2023/12/31 10:18:26;;;;;;;22.20;17.00;;;;;;;3.38;77.09;98664.16;5085997;28;20044;-70
2023/12/31 10:20:53;;;;;;;23.08;16.60;;;;;;;3.43;76.88;98656.97;5085729;28;20112;-70
2023/12/31 10:23:19;;;;;;;23.98;16.38;;;;;;;3.37;77.13;98659.84;5086207;28;20150;-70
2023/12/31 10:25:46;;;;;;;24.80;17.52;;;;;;;3.38;77.08;98668.53;5085864;28;20052;-70
2023/12/31 10:28:14;;;;;;;21.70;17.83;;;;;;;3.41;77.15;98658.81;5086145;28;20044;-70
2023/12/31 10:30:41;;;;;;;23.42;16.02;;;;;;;3.22;77.18;98621.13;5085849;28;20040;-70
2023/12/31 10:33:13;;;;;;;27.35;17.65;;;;;;;3.37;77.23;98645.88;5085986;28;20040;-70
2023/12/31 10:35:40;;;;;;;22.65;17.60;;;;;;;3.42;77.07;98647.41;5085610;28;20055;-69
2023/12/31 10:38:07;;;;;;;22.77;16.33;;;;;;;3.45;77.17;98651.69;5085490;28;20052;-70
2023/12/31 10:40:34;;;;;;;25.52;18.00;;;;;;;3.45;77.06;98649.06;5085381;28;20044;-70
2023/12/31 10:43:02;;;;;;;25.45;18.27;;;;;;;2.94;76.86;98549.75;5086580;28;20173;-69
2023/12/31 10:45:32;;;;;;;23.58;18.00;;;;;;;3.03;76.79;98552.88;5085836;28;20285;-70
2023/12/31 10:48:02;;;;;;;24.98;18.60;;;;;;;3.60;76.59;98645.00;5085683;28;20089;-70
2023/12/31 10:50:31;;;;;;;28.17;21.27;;;;;;;3.57;76.92;98639.88;5085277;28;20391;-70
2023/12/31 10:52:59;;;;;;;29.23;20.45;;;;;;;3.59;76.73;98640.69;5084874;28;20048;-70
2023/12/31 10:55:26;;;;;;;32.90;22.75;;;;;;;3.57;77.03;98630.25;5085787;28;20040;-70
2023/12/31 10:57:54;;;;;;;28.98;22.00;;;;;;;3.62;76.80;98632.72;5085492;28;20216;-70
2023/12/31 11:00:22;;;;;;;33.53;22.77;;;;;;;3.63;76.86;98626.56;5085529;28;20052;-70
2023/12/31 11:02:53;;;;;;;31.38;21.98;;;;;;;3.64;76.75;98618.63;5085316;28;20050;-70
2023/12/31 11:05:22;;;;;;;31.67;22.38;;;;;;;3.69;76.70;98616.69;5085443;28;20045;-70
2023/12/31 11:07:50;;;;;;;28.58;20.83;;;;;;;3.74;77.19;98611.25;5085442;28;20053;-70
2023/12/31 11:10:18;;;;;;;31.98;22.20;;;;;;;3.77;77.32;98603.28;5085520;28;20106;-70
2023/12/31 11:12:48;;;;;;;34.10;22.65;;;;;;;3.75;77.19;98605.97;5085089;28;20297;-70
2023/12/31 11:15:18;;;;;;;33.30;22.38;;;;;;;3.62;77.04;98575.06;5085052;28;20048;-70
2023/12/31 11:18:12;;;;;;;28.45;19.63;;;;;;;3.84;76.92;98602.13;5085287;28;20115;-70
2023/12/31 11:21:05;;;;;;;26.10;18.25;;;;;;;3.75;77.17;98587.63;5085402;28;20063;-70
2023/12/31 11:23:44;;;;;;;27.65;18.58;;;;;;;3.82;77.19;98577.75;5085218;28;20041;-70
2023/12/31 11:26:12;;;;;;;24.45;18.15;;;;;;;3.84;76.98;98574.16;5085439;28;20052;-70